createdAt,value
2022-09-16T08:42:11.627Z,13.91
2022-09-16T08:42:24.755Z,13.94
2022-09-16T08:42:31.819Z,13.96
2022-09-16T08:42:41.780Z,13.96
2022-09-16T08:42:51.878Z,13.98
2022-09-16T08:43:01.958Z,13.99
2022-09-16T08:43:12.880Z,13.99
2022-09-16T08:43:22.387Z,14.02
2022-09-16T08:43:32.337Z,14.02
2022-09-16T08:43:42.477Z,14.04
2022-09-16T08:43:52.605Z,14.04
2022-09-16T08:44:02.598Z,14.05
2022-09-16T08:44:12.596Z,14.05
2022-09-16T08:44:22.686Z,14.06
2022-09-16T08:44:32.704Z,14.06
2022-09-16T08:44:42.811Z,14.06
2022-09-16T08:44:52.907Z,14.06
2022-09-16T08:45:03.006Z,14.06
2022-09-16T08:45:13.114Z,14.06
2022-09-16T08:45:23.280Z,14.06
2022-09-16T08:45:33.434Z,14.08
2022-09-16T08:45:43.553Z,14.06
2022-09-16T08:45:55.545Z,14.06
2022-09-16T08:46:05.527Z,14.06
2022-09-16T08:46:15.621Z,14.09
2022-09-16T08:46:25.566Z,14.06
2022-09-16T08:46:35.669Z,14.06
2022-09-16T08:46:45.746Z,14.09
2022-09-16T08:46:55.829Z,14.08
2022-09-16T08:47:05.918Z,14.09
2022-09-16T08:47:16.016Z,14.08
2022-09-16T08:47:26.092Z,14.08
2022-09-16T08:47:36.242Z,14.08
2022-09-16T08:47:46.289Z,14.08
2022-09-16T08:47:56.379Z,14.08
2022-09-16T08:48:06.465Z,14.09
2022-09-16T08:48:16.594Z,14.09
2022-09-16T08:48:28.666Z,14.09
2022-09-16T08:48:36.756Z,14.11
2022-09-16T08:48:46.826Z,14.11
2022-09-16T08:48:57.032Z,14.11
2022-09-16T08:49:07.004Z,14.12
2022-09-16T08:49:17.108Z,14.12
2022-09-16T08:49:27.185Z,14.11
2022-09-16T08:49:38.260Z,14.12
2022-09-16T08:49:47.396Z,14.13
2022-09-16T08:49:57.475Z,14.16
2022-09-16T08:50:07.556Z,14.16
2022-09-16T08:50:17.650Z,14.16
2022-09-16T08:50:27.736Z,14.16
2022-09-16T08:50:37.804Z,14.16
2022-09-16T08:50:47.885Z,14.17
2022-09-16T08:50:57.956Z,14.17
2022-09-16T08:51:08.056Z,14.17
2022-09-16T08:51:18.196Z,14.17
2022-09-16T08:51:28.165Z,14.17
2022-09-16T08:51:38.256Z,14.13
2022-09-16T08:51:48.336Z,14.13
2022-09-16T08:51:58.494Z,14.13
2022-09-16T08:52:08.595Z,14.13
2022-09-16T08:52:18.694Z,14.13
2022-09-16T08:52:28.777Z,14.13
2022-09-16T08:52:38.894Z,14.16
2022-09-16T08:52:48.963Z,14.17
2022-09-16T08:52:59.047Z,14.19
2022-09-16T08:53:09.152Z,14.20
2022-09-16T08:53:19.236Z,14.20
2022-09-16T08:53:29.314Z,14.20
2022-09-16T08:53:39.456Z,14.21
2022-09-16T08:53:49.535Z,14.21
2022-09-16T08:53:59.638Z,14.23
2022-09-16T08:54:09.735Z,14.23
2022-09-16T08:54:19.846Z,14.24
2022-09-16T08:54:29.935Z,14.24
2022-09-16T08:54:40.004Z,14.26
2022-09-16T08:54:50.076Z,14.27
2022-09-16T08:55:00.146Z,14.27
2022-09-16T08:55:10.225Z,14.30
2022-09-16T08:55:20.335Z,14.30
2022-09-16T08:55:30.415Z,14.31
2022-09-16T08:55:40.496Z,14.31
2022-09-16T08:55:50.594Z,14.34
2022-09-16T08:56:00.673Z,14.35
2022-09-16T08:56:10.755Z,14.35
2022-09-16T08:56:20.887Z,14.35
2022-09-16T08:56:30.955Z,14.36
2022-09-16T08:56:44.194Z,14.38
2022-09-16T08:56:51.046Z,14.39
2022-09-16T08:57:01.146Z,14.41
2022-09-16T08:57:11.224Z,14.41
2022-09-16T08:57:21.295Z,14.42
2022-09-16T08:57:31.386Z,14.42
2022-09-16T08:57:41.496Z,14.44
2022-09-16T08:57:51.565Z,14.44
2022-09-16T08:58:01.647Z,14.44
2022-09-16T08:58:11.746Z,14.44
2022-09-16T08:58:21.828Z,14.44
2022-09-16T08:58:31.906Z,14.42
2022-09-16T08:58:42.004Z,14.42
2022-09-16T08:58:52.079Z,14.42
2022-09-16T08:59:02.166Z,14.42
2022-09-16T08:59:12.295Z,14.44
2022-09-16T08:59:22.384Z,14.42
2022-09-16T08:59:32.463Z,14.42
2022-09-16T08:59:42.543Z,14.44
2022-09-16T08:59:52.635Z,14.42
2022-09-16T09:00:02.737Z,14.42
2022-09-16T09:00:12.824Z,14.42
2022-09-16T09:00:22.906Z,14.45
2022-09-16T09:00:33.034Z,14.45
2022-09-16T09:00:43.159Z,14.46
2022-09-16T09:00:53.314Z,14.45
2022-09-16T09:01:03.455Z,14.48
2022-09-16T09:01:13.349Z,14.48
2022-09-16T09:01:23.597Z,14.48
2022-09-16T09:01:33.739Z,14.49
2022-09-16T09:01:44.099Z,14.52
2022-09-16T09:01:54.222Z,14.52
2022-09-16T09:02:08.282Z,14.53
2022-09-16T09:02:15.531Z,14.52
2022-09-16T09:02:25.429Z,14.53
2022-09-16T09:02:35.338Z,14.54
2022-09-16T09:02:45.255Z,14.53
2022-09-16T09:02:55.199Z,14.54
2022-09-16T09:03:05.274Z,14.56
2022-09-16T09:03:15.374Z,14.54
2022-09-16T09:03:25.457Z,14.56
2022-09-16T09:03:35.545Z,14.56
2022-09-16T09:03:45.707Z,14.57
2022-09-16T09:03:55.671Z,14.56
2022-09-16T09:04:05.745Z,14.56
2022-09-16T09:04:15.854Z,14.56
2022-09-16T09:04:25.995Z,14.56
2022-09-16T09:04:35.971Z,14.56
2022-09-16T09:04:46.055Z,14.57
2022-09-16T09:04:56.153Z,14.59
2022-09-16T09:05:06.234Z,14.59
2022-09-16T09:05:16.355Z,14.59
2022-09-16T09:05:26.469Z,14.60
2022-09-16T09:05:36.438Z,14.60
2022-09-16T09:05:46.514Z,14.60
2022-09-16T09:05:56.662Z,14.60
2022-09-16T09:06:06.723Z,14.59
2022-09-16T09:06:16.807Z,14.59
2022-09-16T09:06:26.865Z,14.60
2022-09-16T09:06:37.014Z,14.60
2022-09-16T09:06:47.085Z,14.60
2022-09-16T09:06:57.753Z,14.60
2022-09-16T09:07:07.306Z,14.59
2022-09-16T09:07:17.376Z,14.60
2022-09-16T09:07:27.528Z,14.60
2022-09-16T09:07:37.616Z,14.60
2022-09-16T09:07:47.695Z,14.59
2022-09-16T09:07:57.815Z,14.61
2022-09-16T09:08:07.895Z,14.60
2022-09-16T09:08:17.974Z,14.61
2022-09-16T09:08:28.074Z,14.60
2022-09-16T09:08:38.255Z,14.61
2022-09-16T09:08:48.336Z,14.60
2022-09-16T09:08:59.335Z,14.59
2022-09-16T09:09:09.422Z,14.59
2022-09-16T09:09:19.504Z,14.59
2022-09-16T09:09:29.636Z,14.59
2022-09-16T09:09:39.712Z,14.57
2022-09-16T09:09:49.867Z,14.57
2022-09-16T09:09:59.927Z,14.57
2022-09-16T09:10:10.840Z,14.56
2022-09-16T09:10:20.014Z,14.56
2022-09-16T09:10:30.136Z,14.57
2022-09-16T09:10:40.214Z,14.56
2022-09-16T09:10:50.304Z,14.56
2022-09-16T09:11:00.426Z,14.56
2022-09-16T09:11:10.530Z,14.56
2022-09-16T09:11:20.626Z,14.56
2022-09-16T09:11:31.286Z,14.56
2022-09-16T09:11:41.039Z,14.56
2022-09-16T09:11:51.147Z,14.56
2022-09-16T09:12:01.419Z,14.56
2022-09-16T09:12:12.015Z,14.56
2022-09-16T09:12:21.784Z,14.56
2022-09-16T09:12:32.645Z,14.54
2022-09-16T09:12:42.381Z,14.53
2022-09-16T09:12:52.751Z,14.53
2022-09-16T09:13:02.263Z,14.53
2022-09-16T09:13:12.485Z,14.52
2022-09-16T09:13:22.089Z,14.52
2022-09-16T09:13:31.768Z,14.49
2022-09-16T09:13:41.904Z,14.49
2022-09-16T09:13:52.154Z,14.49
2022-09-16T09:14:02.104Z,14.49
2022-09-16T09:14:12.183Z,14.49
2022-09-16T09:14:22.264Z,14.48
2022-09-16T09:14:32.314Z,14.48
2022-09-16T09:14:42.386Z,14.48
2022-09-16T09:14:52.412Z,14.46
2022-09-16T09:15:02.393Z,14.48
2022-09-16T09:15:12.477Z,14.48
2022-09-16T09:15:27.453Z,14.49
2022-09-16T09:15:33.521Z,14.48
2022-09-16T09:15:43.608Z,14.49
2022-09-16T09:15:53.704Z,14.52
2022-09-16T09:16:03.823Z,14.48
2022-09-16T09:16:13.938Z,14.48
2022-09-16T09:16:24.044Z,14.48
2022-09-16T09:16:34.212Z,14.48
2022-09-16T09:16:44.250Z,14.46
2022-09-16T09:16:54.296Z,14.46
2022-09-16T09:17:04.243Z,14.46
2022-09-16T09:17:14.362Z,14.48
2022-09-16T09:17:24.464Z,14.48
2022-09-16T09:17:37.223Z,14.48
2022-09-16T09:17:48.771Z,14.45
2022-09-16T09:17:55.488Z,14.46
2022-09-16T09:18:05.572Z,14.48
2022-09-16T09:18:16.266Z,14.45
2022-09-16T09:18:25.733Z,14.45
2022-09-16T09:18:35.814Z,14.45
2022-09-16T09:18:45.873Z,14.45
2022-09-16T09:18:55.944Z,14.44
2022-09-16T09:19:06.082Z,14.44
2022-09-16T09:19:16.153Z,14.45
2022-09-16T09:19:26.204Z,14.44
2022-09-16T09:19:36.274Z,14.44
2022-09-16T09:19:46.354Z,14.44
2022-09-16T09:19:56.424Z,14.44
2022-09-16T09:20:06.494Z,14.44
2022-09-16T09:20:16.554Z,14.45
2022-09-16T09:20:26.653Z,14.42
2022-09-16T09:20:36.742Z,14.44
2022-09-16T09:20:46.813Z,14.44
2022-09-16T09:20:56.893Z,14.44
2022-09-16T09:21:06.961Z,14.44
2022-09-16T09:21:17.028Z,14.45
2022-09-16T09:21:27.452Z,14.45
2022-09-16T09:21:37.093Z,14.45
2022-09-16T09:21:47.184Z,14.46
2022-09-16T09:21:57.164Z,14.45
2022-09-16T09:22:07.223Z,14.45
2022-09-16T09:22:17.302Z,14.45
2022-09-16T09:22:27.394Z,14.45
2022-09-16T09:22:37.481Z,14.46
2022-09-16T09:22:47.524Z,14.48
2022-09-16T09:22:57.594Z,14.46
2022-09-16T09:23:07.646Z,14.48
2022-09-16T09:23:17.712Z,14.48
2022-09-16T09:23:27.794Z,14.46
2022-09-16T09:23:38.813Z,14.48
2022-09-16T09:23:47.871Z,14.48
2022-09-16T09:23:57.994Z,14.48
2022-09-16T09:24:08.052Z,14.48
2022-09-16T09:24:18.173Z,14.46
2022-09-16T09:24:28.263Z,14.48
2022-09-16T09:24:38.334Z,14.48
2022-09-16T09:24:48.418Z,14.48
2022-09-16T09:24:58.522Z,14.48
2022-09-16T09:25:08.634Z,14.48
2022-09-16T09:25:18.697Z,14.48
2022-09-16T09:25:28.754Z,14.49
2022-09-16T09:25:38.814Z,14.49
2022-09-16T09:25:48.896Z,14.48
2022-09-16T09:25:58.954Z,14.49
2022-09-16T09:26:09.075Z,14.49
2022-09-16T09:26:19.142Z,14.49
2022-09-16T09:26:29.224Z,14.52
2022-09-16T09:26:39.291Z,14.52
2022-09-16T09:26:49.406Z,14.53
2022-09-16T09:26:59.471Z,14.53
2022-09-16T09:27:09.551Z,14.56
2022-09-16T09:27:19.692Z,14.56
2022-09-16T09:27:29.763Z,14.56
2022-09-16T09:27:39.838Z,14.57
2022-09-16T09:27:49.893Z,14.59
2022-09-16T09:28:00.006Z,14.57
2022-09-16T09:28:10.063Z,14.60
2022-09-16T09:28:20.124Z,14.59
2022-09-16T09:28:30.272Z,14.59
2022-09-16T09:28:40.366Z,14.60
2022-09-16T09:28:50.452Z,14.60
2022-09-16T09:29:00.574Z,14.60
2022-09-16T09:29:10.694Z,14.63
2022-09-16T09:29:20.780Z,14.63
2022-09-16T09:29:30.844Z,14.64
2022-09-16T09:29:40.961Z,14.64
2022-09-16T09:29:51.043Z,14.66
2022-09-16T09:30:01.140Z,14.67
2022-09-16T09:30:11.182Z,14.67
2022-09-16T09:30:21.305Z,14.67
2022-09-16T09:30:31.381Z,14.69
2022-09-16T09:30:41.457Z,14.69
2022-09-16T09:30:51.424Z,14.69
2022-09-16T09:31:01.523Z,14.72
2022-09-16T09:31:11.689Z,14.71
2022-09-16T09:31:21.644Z,14.71
2022-09-16T09:31:31.742Z,14.72
2022-09-16T09:31:41.876Z,14.74
2022-09-16T09:31:52.014Z,14.74
2022-09-16T09:32:02.110Z,14.71
2022-09-16T09:32:12.084Z,14.72
2022-09-16T09:32:22.186Z,14.72
2022-09-16T09:32:42.070Z,14.71
2022-09-16T09:32:49.486Z,14.71
2022-09-16T09:32:54.269Z,14.72
2022-09-16T09:33:04.313Z,14.71
2022-09-16T09:33:41.576Z,14.72
2022-09-16T09:33:44.762Z,14.72
2022-09-16T09:33:46.192Z,14.71
2022-09-16T09:33:47.469Z,14.72
2022-09-16T09:33:57.063Z,14.71
2022-09-16T09:34:07.164Z,14.72
2022-09-16T09:34:17.214Z,14.72
2022-09-16T09:34:27.244Z,14.71
2022-09-16T09:34:41.025Z,14.72
2022-09-16T09:34:47.974Z,14.72
2022-09-16T09:34:57.743Z,14.72
2022-09-16T09:35:07.834Z,14.71
2022-09-16T09:35:17.993Z,14.72
2022-09-16T09:35:27.964Z,14.72
2022-09-16T09:35:38.042Z,14.69
2022-09-16T09:35:48.183Z,14.72
2022-09-16T09:35:58.194Z,14.72
2022-09-16T09:36:08.328Z,14.72
2022-09-16T09:36:18.434Z,14.72
2022-09-16T09:36:28.523Z,14.71
2022-09-16T09:36:38.714Z,14.74
2022-09-16T09:36:48.630Z,14.74
2022-09-16T09:36:58.732Z,14.72
2022-09-16T09:37:08.728Z,14.78
2022-09-16T09:37:18.716Z,14.79
2022-09-16T09:37:28.812Z,14.80
2022-09-16T09:37:38.882Z,14.78
2022-09-16T09:37:48.974Z,14.80
2022-09-16T09:37:59.095Z,14.78
2022-09-16T09:38:09.183Z,14.80
2022-09-16T09:38:19.300Z,14.80
2022-09-16T09:38:29.391Z,14.85
2022-09-16T09:38:39.474Z,14.83
2022-09-16T09:38:49.598Z,14.83
2022-09-16T09:38:59.690Z,14.83
2022-09-16T09:39:09.803Z,14.83
2022-09-16T09:39:19.890Z,14.82
2022-09-16T09:39:29.983Z,14.80
2022-09-16T09:39:40.070Z,14.82
2022-09-16T09:39:50.176Z,14.82
2022-09-16T09:40:00.496Z,14.82
2022-09-16T09:40:10.302Z,14.80
2022-09-16T09:40:20.424Z,14.82
2022-09-16T09:40:30.545Z,14.80
2022-09-16T09:40:40.622Z,14.79
2022-09-16T09:40:50.742Z,14.82
2022-09-16T09:41:00.853Z,14.78
2022-09-16T09:41:10.937Z,14.80
2022-09-16T09:41:21.048Z,14.79
2022-09-16T09:41:31.122Z,14.82
2022-09-16T09:41:41.202Z,14.82
2022-09-16T09:41:51.321Z,14.82
2022-09-16T09:42:01.412Z,14.82
2022-09-16T09:42:11.542Z,14.82
2022-09-16T09:42:21.624Z,14.83
2022-09-16T09:42:31.754Z,14.83
2022-09-16T09:42:41.841Z,14.80
2022-09-16T09:42:51.983Z,14.82
2022-09-16T09:43:02.075Z,14.82
2022-09-16T09:43:12.153Z,14.83
2022-09-16T09:43:22.239Z,14.83
2022-09-16T09:43:32.382Z,14.83
2022-09-16T09:43:42.484Z,14.83
2022-09-16T09:43:52.553Z,14.86
2022-09-16T09:44:02.641Z,14.83
2022-09-16T09:44:12.782Z,14.83
2022-09-16T09:44:22.854Z,14.83
2022-09-16T09:44:32.966Z,14.85
2022-09-16T09:44:43.066Z,14.86
2022-09-16T09:44:55.240Z,14.85
2022-09-16T09:45:03.260Z,14.86
2022-09-16T09:45:13.362Z,14.85
2022-09-16T09:45:23.483Z,14.83
2022-09-16T09:45:33.582Z,14.87
2022-09-16T09:45:43.779Z,14.85
2022-09-16T09:45:53.805Z,14.86
2022-09-16T09:46:03.828Z,14.87
2022-09-16T09:46:13.820Z,14.87
2022-09-16T09:46:23.813Z,14.91
2022-09-16T09:46:33.838Z,14.90
2022-09-16T09:46:43.742Z,14.91
2022-09-16T09:46:53.841Z,14.93
2022-09-16T09:47:03.930Z,14.93
2022-09-16T09:47:14.011Z,14.93
2022-09-16T09:47:24.092Z,14.93
2022-09-16T09:47:34.180Z,14.94
2022-09-16T09:47:44.251Z,14.91
2022-09-16T09:47:55.281Z,14.91
2022-09-16T09:48:05.429Z,14.93
2022-09-16T09:48:15.501Z,14.94
2022-09-16T09:48:25.620Z,14.90
2022-09-16T09:48:35.716Z,14.93
2022-09-16T09:48:45.823Z,14.91
2022-09-16T09:48:55.891Z,14.93
2022-09-16T09:49:06.021Z,14.93
2022-09-16T09:49:16.112Z,14.94
2022-09-16T09:49:26.103Z,14.93
2022-09-16T09:49:36.879Z,14.95
2022-09-16T09:49:46.262Z,14.94
2022-09-16T09:49:56.352Z,14.97
2022-09-16T09:50:06.503Z,14.94
2022-09-16T09:50:16.620Z,14.95
2022-09-16T09:50:26.582Z,14.98
2022-09-16T09:50:36.701Z,14.98
2022-09-16T09:50:46.836Z,14.98
2022-09-16T09:50:56.773Z,14.98
2022-09-16T09:51:06.882Z,15.01
2022-09-16T09:51:17.011Z,14.98
2022-09-16T09:51:27.103Z,15.03
2022-09-16T09:51:37.202Z,15.04
2022-09-16T09:51:47.292Z,15.00
2022-09-16T09:51:57.402Z,15.01
2022-09-16T09:52:07.532Z,15.04
2022-09-16T09:52:17.610Z,15.04
2022-09-16T09:52:27.710Z,15.03
2022-09-16T09:52:37.906Z,15.04
2022-09-16T09:52:47.792Z,15.04
2022-09-16T09:52:57.882Z,15.04
2022-09-16T09:53:07.991Z,15.03
2022-09-16T09:53:18.120Z,15.04
2022-09-16T09:53:28.242Z,15.04
2022-09-16T09:53:38.351Z,15.03
2022-09-16T09:53:48.460Z,15.04
2022-09-16T09:53:58.551Z,15.03
2022-09-16T09:54:08.679Z,15.03
2022-09-16T09:54:18.822Z,15.03
2022-09-16T09:54:28.931Z,15.03
2022-09-16T09:54:38.883Z,15.04
2022-09-16T09:54:48.991Z,15.04
2022-09-16T09:54:59.081Z,15.04
2022-09-16T09:55:12.058Z,15.04
2022-09-16T09:55:20.102Z,15.03
2022-09-16T09:55:30.208Z,15.05
2022-09-16T09:55:40.310Z,15.05
2022-09-16T09:55:50.259Z,15.05
2022-09-16T09:56:00.342Z,15.07
2022-09-16T09:56:10.456Z,15.09
2022-09-16T09:56:20.534Z,15.09
2022-09-16T09:56:30.601Z,15.09
2022-09-16T09:56:40.714Z,15.11
2022-09-16T09:56:50.790Z,15.12
2022-09-16T09:57:00.881Z,15.11
2022-09-16T09:57:10.972Z,15.12
2022-09-16T09:57:21.094Z,15.13
2022-09-16T09:57:31.202Z,15.16
2022-09-16T09:57:41.299Z,15.15
2022-09-16T09:57:51.419Z,15.15
2022-09-16T09:58:01.491Z,15.16
2022-09-16T09:58:11.589Z,15.16
2022-09-16T09:58:21.700Z,15.16
2022-09-16T09:58:31.790Z,15.18
2022-09-16T09:58:41.946Z,15.18
2022-09-16T09:58:52.038Z,15.16
2022-09-16T09:59:02.178Z,15.18
2022-09-16T09:59:12.282Z,15.18
2022-09-16T09:59:22.411Z,15.18
2022-09-16T09:59:32.510Z,15.18
2022-09-16T09:59:42.641Z,15.18
2022-09-16T09:59:52.759Z,15.18
2022-09-16T10:00:02.879Z,15.18
2022-09-16T10:00:13.019Z,15.19
2022-09-16T10:00:23.102Z,15.20
2022-09-16T10:00:33.224Z,15.18
2022-09-16T10:00:43.422Z,15.19
2022-09-16T10:00:53.374Z,15.16
2022-09-16T10:01:03.354Z,15.18
2022-09-16T10:01:13.366Z,15.16
2022-09-16T10:01:23.381Z,15.19
2022-09-16T10:01:33.389Z,15.20
2022-09-16T10:01:43.478Z,15.18
2022-09-16T10:01:53.580Z,15.18
2022-09-16T10:02:03.772Z,15.16
2022-09-16T10:02:13.730Z,15.18
2022-09-16T10:02:23.744Z,15.20
2022-09-16T10:02:33.682Z,15.19
2022-09-16T10:02:48.880Z,15.20
2022-09-16T10:03:01.501Z,15.19
2022-09-16T10:03:06.110Z,15.19
2022-09-16T10:03:16.241Z,15.20
2022-09-16T10:03:26.342Z,15.20
2022-09-16T10:03:36.452Z,15.22
2022-09-16T10:03:46.545Z,15.19
2022-09-16T10:03:56.645Z,15.22
2022-09-16T10:04:06.730Z,15.22
2022-09-16T10:04:16.905Z,15.25
2022-09-16T10:04:26.862Z,15.23
2022-09-16T10:04:36.952Z,15.25
2022-09-16T10:04:47.032Z,15.27
2022-09-16T10:04:59.021Z,15.28
2022-09-16T10:05:09.151Z,15.33
2022-09-16T10:05:19.314Z,15.33
2022-09-16T10:05:29.221Z,15.34
2022-09-16T10:05:39.338Z,15.35
2022-09-16T10:05:49.421Z,15.34
2022-09-16T10:05:59.430Z,15.35
2022-09-16T10:06:09.560Z,15.35
2022-09-16T10:06:19.560Z,15.37
2022-09-16T10:06:29.638Z,15.37
2022-09-16T10:06:39.730Z,15.37
2022-09-16T10:06:49.855Z,15.35
2022-09-16T10:06:59.986Z,15.37
2022-09-16T10:07:09.990Z,15.38
2022-09-16T10:07:20.069Z,15.40
2022-09-16T10:07:30.191Z,15.38
2022-09-16T10:07:40.270Z,15.40
2022-09-16T10:07:50.349Z,15.41
2022-09-16T10:08:00.448Z,15.41
2022-09-16T10:08:13.016Z,15.44
2022-09-16T10:08:21.498Z,15.40
2022-09-16T10:08:31.609Z,15.41
2022-09-16T10:08:41.728Z,15.43
2022-09-16T10:08:51.830Z,15.41
2022-09-16T10:09:01.931Z,15.43
2022-09-16T10:09:12.032Z,15.41
2022-09-16T10:09:22.138Z,15.41
2022-09-16T10:09:32.251Z,15.43
2022-09-16T10:09:42.341Z,15.43
2022-09-16T10:09:52.484Z,15.43
2022-09-16T10:10:02.585Z,15.41
2022-09-16T10:10:12.690Z,15.43
2022-09-16T10:10:22.752Z,15.43
2022-09-16T10:10:32.854Z,15.41
2022-09-16T10:10:42.920Z,15.43
2022-09-16T10:10:52.952Z,15.41
2022-09-16T10:11:03.082Z,15.43
2022-09-16T10:11:13.171Z,15.41
2022-09-16T10:11:23.262Z,15.44
2022-09-16T10:11:33.395Z,15.44
2022-09-16T10:11:43.490Z,15.44
2022-09-16T10:11:53.580Z,15.48
2022-09-16T10:12:03.663Z,15.46
2022-09-16T10:12:13.742Z,15.46
2022-09-16T10:12:23.814Z,15.48
2022-09-16T10:12:33.938Z,15.46
2022-09-16T10:12:44.027Z,15.46
2022-09-16T10:12:54.129Z,15.46
2022-09-16T10:13:04.210Z,15.46
2022-09-16T10:13:14.330Z,15.46
2022-09-16T10:13:24.400Z,15.46
2022-09-16T10:13:34.501Z,15.46
2022-09-16T10:13:44.610Z,15.44
2022-09-16T10:13:54.741Z,15.46
2022-09-16T10:14:04.819Z,15.46
2022-09-16T10:14:14.945Z,15.48
2022-09-16T10:14:24.918Z,15.46
2022-09-16T10:14:35.000Z,15.46
2022-09-16T10:14:45.081Z,15.43
2022-09-16T10:14:55.170Z,15.46
2022-09-16T10:15:05.246Z,15.46
2022-09-16T10:15:15.330Z,15.48
2022-09-16T10:15:25.433Z,15.46
2022-09-16T10:15:35.539Z,15.46
2022-09-16T10:15:45.627Z,15.46
2022-09-16T10:15:55.971Z,15.49
2022-09-16T10:16:05.765Z,15.48
2022-09-16T10:16:15.887Z,15.51
2022-09-16T10:16:25.993Z,15.51
2022-09-16T10:16:35.982Z,15.52
2022-09-16T10:16:45.995Z,15.51
2022-09-16T10:16:55.941Z,15.55
2022-09-16T10:17:06.038Z,15.53
2022-09-16T10:17:16.189Z,15.53
2022-09-16T10:17:26.270Z,15.53
2022-09-16T10:17:38.937Z,15.53
2022-09-16T10:17:46.460Z,15.55
2022-09-16T10:17:56.621Z,15.55
2022-09-16T10:18:06.549Z,15.58
2022-09-16T10:18:16.640Z,15.56
2022-09-16T10:18:26.753Z,15.58
2022-09-16T10:18:36.852Z,15.59
2022-09-16T10:18:47.038Z,15.60
2022-09-16T10:18:56.960Z,15.62
2022-09-16T10:19:07.089Z,15.60
2022-09-16T10:19:17.199Z,15.60
2022-09-16T10:19:27.299Z,15.64
2022-09-16T10:19:37.423Z,15.66
2022-09-16T10:19:47.517Z,15.64
2022-09-16T10:19:57.619Z,15.64
2022-09-16T10:20:07.718Z,15.64
2022-09-16T10:20:17.808Z,15.67
2022-09-16T10:20:27.899Z,15.64
2022-09-16T10:20:38.013Z,15.68
2022-09-16T10:20:48.099Z,15.66
2022-09-16T10:20:58.201Z,15.67
2022-09-16T10:21:08.329Z,15.66
2022-09-16T10:21:18.460Z,15.67
2022-09-16T10:21:28.567Z,15.67
2022-09-16T10:21:38.551Z,15.68
2022-09-16T10:21:48.664Z,15.68
2022-09-16T10:21:58.768Z,15.67
2022-09-16T10:22:08.782Z,15.68
2022-09-16T10:22:18.870Z,15.70
2022-09-16T10:22:28.988Z,15.70
2022-09-16T10:22:39.069Z,15.71
2022-09-16T10:22:49.180Z,15.71
2022-09-16T10:22:59.318Z,15.68
2022-09-16T10:23:09.392Z,15.71
2022-09-16T10:23:19.524Z,15.70
2022-09-16T10:23:30.485Z,15.70
2022-09-16T10:23:39.696Z,15.70
2022-09-16T10:23:49.778Z,15.68
2022-09-16T10:23:59.819Z,15.68
2022-09-16T10:24:09.900Z,15.68
2022-09-16T10:24:20.029Z,15.70
2022-09-16T10:24:30.023Z,15.70
2022-09-16T10:24:40.110Z,15.71
2022-09-16T10:24:50.258Z,15.71
2022-09-16T10:25:00.380Z,15.74
2022-09-16T10:25:10.480Z,15.74
2022-09-16T10:25:20.623Z,15.77
2022-09-16T10:25:30.560Z,15.77
2022-09-16T10:25:40.649Z,15.76
2022-09-16T10:25:50.761Z,15.80
2022-09-16T10:26:00.862Z,15.80
2022-09-16T10:26:10.959Z,15.81
2022-09-16T10:26:21.049Z,15.81
2022-09-16T10:26:31.165Z,15.81
2022-09-16T10:26:41.239Z,15.85
2022-09-16T10:26:51.370Z,15.85
2022-09-16T10:27:01.460Z,15.86
2022-09-16T10:27:11.570Z,15.88
2022-09-16T10:27:21.696Z,15.88
2022-09-16T10:27:31.789Z,15.88
2022-09-16T10:27:41.859Z,15.92
2022-09-16T10:27:51.979Z,15.91
2022-09-16T10:28:02.073Z,15.95
2022-09-16T10:28:12.158Z,15.92
2022-09-16T10:28:22.270Z,15.93
2022-09-16T10:28:32.352Z,15.93
2022-09-16T10:28:42.468Z,15.93
2022-09-16T10:28:52.558Z,15.96
2022-09-16T10:29:02.659Z,15.98
2022-09-16T10:29:12.789Z,15.96
2022-09-16T10:29:22.878Z,15.98
2022-09-16T10:29:32.904Z,16.01
2022-09-16T10:29:42.998Z,15.99
2022-09-16T10:29:53.030Z,16.03
2022-09-16T10:30:03.745Z,16.06
2022-09-16T10:30:13.162Z,16.01
2022-09-16T10:30:33.312Z,16.03
2022-09-16T10:30:43.422Z,16.03
2022-09-16T10:30:53.509Z,16.03
2022-09-16T10:31:03.627Z,16.06
2022-09-16T10:31:13.604Z,16.03
2022-09-16T10:31:23.608Z,16.04
2022-09-16T10:31:34.625Z,16.04
2022-09-16T10:31:43.651Z,16.04
2022-09-16T10:31:53.636Z,16.03
2022-09-16T10:32:03.760Z,16.03
2022-09-16T10:32:13.709Z,16.04
2022-09-16T10:32:23.808Z,16.03
2022-09-16T10:32:33.911Z,16.04
2022-09-16T10:32:43.998Z,16.04
2022-09-16T10:32:54.090Z,16.04
2022-09-16T10:33:04.171Z,16.03
2022-09-16T10:33:14.239Z,16.04
2022-09-16T10:33:24.320Z,16.06
2022-09-16T10:33:34.377Z,16.06
2022-09-16T10:33:44.486Z,16.06
2022-09-16T10:33:54.528Z,16.07
2022-09-16T10:34:04.599Z,16.08
2022-09-16T10:34:14.708Z,16.07
2022-09-16T10:34:24.797Z,16.07
2022-09-16T10:34:34.865Z,16.08
2022-09-16T10:34:44.919Z,16.10
2022-09-16T10:34:54.987Z,16.10
2022-09-16T10:35:05.058Z,16.07
2022-09-16T10:35:15.181Z,16.08
2022-09-16T10:35:25.253Z,16.10
2022-09-16T10:35:35.350Z,16.07
2022-09-16T10:35:45.439Z,16.10
2022-09-16T10:35:55.489Z,16.08
2022-09-16T10:36:05.628Z,16.10
2022-09-16T10:36:15.735Z,16.10
2022-09-16T10:36:25.809Z,16.11
2022-09-16T10:36:35.917Z,16.13
2022-09-16T10:36:46.034Z,16.11
2022-09-16T10:36:56.111Z,16.14
2022-09-16T10:37:06.223Z,16.13
2022-09-16T10:37:16.310Z,16.11
2022-09-16T10:37:26.407Z,16.14
2022-09-16T10:37:36.490Z,16.11
2022-09-16T10:37:46.610Z,16.14
2022-09-16T10:37:56.722Z,16.13
2022-09-16T10:38:06.811Z,16.14
2022-09-16T10:38:16.909Z,16.16
2022-09-16T10:38:27.039Z,16.16
2022-09-16T10:38:37.159Z,16.14
2022-09-16T10:38:47.298Z,16.14
2022-09-16T10:39:02.255Z,16.13
2022-09-16T10:39:08.359Z,16.13
2022-09-16T10:39:18.465Z,16.16
2022-09-16T10:39:28.551Z,16.14
2022-09-16T10:39:38.682Z,16.17
2022-09-16T10:39:48.659Z,16.18
2022-09-16T10:39:58.795Z,16.17
2022-09-16T10:40:08.910Z,16.18
2022-09-16T10:40:18.888Z,16.18
2022-09-16T10:40:29.039Z,16.22
2022-09-16T10:40:39.005Z,16.18
2022-09-16T10:40:49.088Z,16.23
2022-09-16T10:40:59.078Z,16.26
2022-09-16T10:41:09.169Z,16.27
2022-09-16T10:41:19.268Z,16.29
2022-09-16T10:41:29.378Z,16.29
2022-09-16T10:41:39.488Z,16.32
2022-09-16T10:41:49.578Z,16.30
2022-09-16T10:41:59.668Z,16.33
2022-09-16T10:42:09.768Z,16.33
2022-09-16T10:42:19.866Z,16.36
2022-09-16T10:42:29.980Z,16.34
2022-09-16T10:42:40.070Z,16.37
2022-09-16T10:42:50.215Z,16.36
2022-09-16T10:43:00.220Z,16.34
2022-09-16T10:43:10.299Z,16.37
2022-09-16T10:43:20.437Z,16.36
2022-09-16T10:43:30.389Z,16.36
2022-09-16T10:43:40.487Z,16.37
2022-09-16T10:43:50.580Z,16.34
2022-09-16T10:44:00.668Z,16.36
2022-09-16T10:44:13.950Z,16.37
2022-09-16T10:44:21.776Z,16.34
2022-09-16T10:44:31.732Z,16.36
2022-09-16T10:44:41.829Z,16.36
2022-09-16T10:44:51.878Z,16.36
2022-09-16T10:45:01.968Z,16.34
2022-09-16T10:45:12.038Z,16.34
2022-09-16T10:45:22.129Z,16.34
2022-09-16T10:45:32.198Z,16.32
2022-09-16T10:45:42.299Z,16.29
2022-09-16T10:45:52.422Z,16.27
2022-09-16T10:46:02.572Z,16.25
2022-09-16T10:46:12.716Z,16.25
2022-09-16T10:46:22.816Z,16.25
2022-09-16T10:46:32.771Z,16.22
2022-09-16T10:46:42.895Z,16.18
2022-09-16T10:46:52.968Z,16.22
2022-09-16T10:47:03.115Z,16.18
2022-09-16T10:47:13.178Z,16.17
2022-09-16T10:47:23.256Z,16.14
2022-09-16T10:47:33.367Z,16.13
2022-09-16T10:47:53.498Z,16.13
2022-09-16T10:48:07.103Z,16.08
2022-09-16T10:48:14.075Z,16.08
2022-09-16T10:48:24.178Z,16.08
2022-09-16T10:48:34.268Z,16.11
2022-09-16T10:48:44.403Z,16.10
2022-09-16T10:48:54.338Z,16.08
2022-09-16T10:49:04.408Z,16.08
2022-09-16T10:49:14.509Z,16.08
2022-09-16T10:49:24.599Z,16.08
2022-09-16T10:49:34.687Z,16.08
2022-09-16T10:49:44.768Z,16.07
2022-09-16T10:49:54.856Z,16.06
2022-09-16T10:50:04.948Z,16.07
2022-09-16T10:50:15.056Z,16.07
2022-09-16T10:50:25.157Z,16.06
2022-09-16T10:50:35.238Z,16.03
2022-09-16T10:50:45.326Z,16.04
2022-09-16T10:50:55.448Z,15.99
2022-09-16T10:51:05.537Z,15.98
2022-09-16T10:51:15.508Z,15.96
2022-09-16T10:51:25.622Z,15.95
2022-09-16T10:51:35.718Z,15.93
2022-09-16T10:51:45.848Z,15.92
2022-09-16T10:51:55.925Z,15.89
2022-09-16T10:52:05.999Z,15.88
2022-09-16T10:52:16.694Z,15.88
2022-09-16T10:52:26.085Z,15.85
2022-09-16T10:52:36.177Z,15.86